createdAt,value
2018-07-14T00:00:43.801Z,79.81
2018-07-14T00:05:47.491Z,80.11
2018-07-14T00:10:51.007Z,80.98
2018-07-14T00:15:54.786Z,80.74
2018-07-14T00:20:58.556Z,80.98
2018-07-14T00:26:02.897Z,80.28
2018-07-14T00:31:06.469Z,81.67
2018-07-14T00:36:10.125Z,81.67
2018-07-14T00:41:13.612Z,81.51
2018-07-14T00:46:17.153Z,82.20
2018-07-14T00:51:20.876Z,84.11
2018-07-14T00:56:24.430Z,83.18
2018-07-14T01:01:28.261Z,82.66
2018-07-14T01:06:33.293Z,83.78
2018-07-14T01:11:36.800Z,83.69
2018-07-14T01:16:41.543Z,84.50
2018-07-14T01:21:45.732Z,84.37
2018-07-14T01:26:50.099Z,85.32
2018-07-14T01:31:53.683Z,85.92
2018-07-14T01:36:57.828Z,84.92
2018-07-14T01:42:01.296Z,87.05
2018-07-14T01:47:04.971Z,87.45
2018-07-14T01:52:08.644Z,86.39
2018-07-14T01:57:12.259Z,87.23
2018-07-14T02:02:16.029Z,86.42
2018-07-14T02:07:19.607Z,86.32
2018-07-14T02:12:23.141Z,86.77
2018-07-14T02:17:27.094Z,88.73
2018-07-14T02:22:31.406Z,88.71
2018-07-14T02:27:35.187Z,89.06
2018-07-14T02:32:39.523Z,90.10
2018-07-14T02:37:43.141Z,89.38
2018-07-14T02:42:46.646Z,88.76
2018-07-14T02:47:50.481Z,87.97
2018-07-14T02:52:54.817Z,88.53
2018-07-14T02:57:58.389Z,87.58
2018-07-14T03:03:01.889Z,87.95
2018-07-14T03:08:05.681Z,88.19
2018-07-14T03:13:09.308Z,88.37
2018-07-14T03:18:12.895Z,88.13
2018-07-14T03:23:17.317Z,87.24
2018-07-14T03:28:21.141Z,90.31
2018-07-14T03:33:24.625Z,91.10
2018-07-14T03:38:28.354Z,91.90
2018-07-14T03:43:33.184Z,90.94
2018-07-14T03:48:36.762Z,89.12
2018-07-14T03:53:40.250Z,89.42
2018-07-14T03:58:43.862Z,91.58
2018-07-14T04:03:47.593Z,89.23
2018-07-14T04:08:51.222Z,88.57
2018-07-14T04:13:54.833Z,86.09
2018-07-14T04:18:59.012Z,83.79
2018-07-14T04:24:02.592Z,85.78
2018-07-14T04:29:07.044Z,86.02
2018-07-14T04:34:10.616Z,85.93
2018-07-14T04:39:14.189Z,83.01
2018-07-14T04:44:17.729Z,85.62
2018-07-14T04:49:21.560Z,85.72
2018-07-14T04:54:25.080Z,82.36
2018-07-14T04:59:28.879Z,76.39
2018-07-14T05:04:32.449Z,73.64
2018-07-14T05:09:36.140Z,71.40
2018-07-14T05:14:39.666Z,68.73
2018-07-14T05:19:43.252Z,65.06
2018-07-14T05:24:46.815Z,69.50
2018-07-14T05:29:50.861Z,74.63
2018-07-14T05:34:54.406Z,75.15
2018-07-14T05:39:57.977Z,79.04
2018-07-14T05:45:01.485Z,78.45
2018-07-14T05:50:05.859Z,74.09
2018-07-14T05:55:09.709Z,73.44
2018-07-14T06:00:14.100Z,75.44
2018-07-14T06:05:17.689Z,76.36
2018-07-14T06:10:21.317Z,76.17
2018-07-14T06:15:24.828Z,74.82
2018-07-14T06:20:28.792Z,71.87
2018-07-14T06:25:32.829Z,74.28
2018-07-14T06:30:37.108Z,71.66
2018-07-14T06:35:40.786Z,72.29
2018-07-14T06:40:45.067Z,70.01
2018-07-14T06:45:48.555Z,70.04
2018-07-14T06:50:52.807Z,70.65
2018-07-14T06:55:56.389Z,69.27
2018-07-14T07:00:59.965Z,68.27
2018-07-14T07:06:03.511Z,66.85
2018-07-14T07:11:07.077Z,65.33
2018-07-14T07:16:10.584Z,65.72
2018-07-14T07:21:14.841Z,63.75
2018-07-14T07:26:18.347Z,64.50
2018-07-14T07:31:21.901Z,63.24
2018-07-14T07:36:25.587Z,63.47
2018-07-14T07:41:29.146Z,62.83
2018-07-14T07:46:32.682Z,61.74
2018-07-14T07:51:36.264Z,61.39
2018-07-14T07:56:39.819Z,60.54
2018-07-14T08:01:43.619Z,59.91
2018-07-14T08:06:47.170Z,60.50
2018-07-14T08:11:50.777Z,59.61
2018-07-14T08:16:54.238Z,59.86
2018-07-14T08:21:57.771Z,59.96
2018-07-14T08:27:01.338Z,57.88
2018-07-14T08:32:05.148Z,58.04
2018-07-14T08:37:09.172Z,58.09
2018-07-14T08:42:13.915Z,57.29
2018-07-14T08:47:17.452Z,56.27
2018-07-14T08:52:21.671Z,56.99
2018-07-14T08:57:26.019Z,55.38
2018-07-14T09:02:30.990Z,54.50
2018-07-14T09:07:34.491Z,55.48
2018-07-14T09:12:38.038Z,55.56
2018-07-14T09:17:41.744Z,52.78
2018-07-14T09:22:45.316Z,54.16
2018-07-14T09:27:49.356Z,55.39
2018-07-14T09:32:52.934Z,56.26
2018-07-14T09:37:56.502Z,52.59
2018-07-14T09:43:00.674Z,52.12
2018-07-14T09:48:04.212Z,55.76
2018-07-14T09:53:07.911Z,53.21
2018-07-14T09:58:11.436Z,52.08
2018-07-14T10:03:15.053Z,52.05
2018-07-14T10:08:19.265Z,51.89
2018-07-14T10:13:24.055Z,52.39
2018-07-14T10:18:28.197Z,51.59
2018-07-14T10:23:31.801Z,53.64
2018-07-14T10:28:35.293Z,52.24
2018-07-14T10:33:39.124Z,52.18
2018-07-14T10:38:44.333Z,51.75
2018-07-14T10:43:48.210Z,52.13
2018-07-14T10:48:51.676Z,51.47
2018-07-14T10:53:55.250Z,51.11
2018-07-14T10:59:03.796Z,50.27
2018-07-14T11:04:09.892Z,51.51
2018-07-14T11:09:15.702Z,48.34
2018-07-14T11:14:20.297Z,49.99
2018-07-14T11:19:23.845Z,50.31
2018-07-14T11:24:27.422Z,49.47
2018-07-14T11:29:31.078Z,49.61
2018-07-14T11:34:34.954Z,48.77
2018-07-14T11:39:38.833Z,49.86
2018-07-14T11:44:47.145Z,49.17
2018-07-14T11:49:50.729Z,50.04
2018-07-14T11:54:54.408Z,48.57
2018-07-14T11:59:58.021Z,48.87
2018-07-14T12:05:02.960Z,47.80
2018-07-14T12:10:07.197Z,49.56
2018-07-14T12:15:11.958Z,48.52
2018-07-14T12:20:16.035Z,45.56
2018-07-14T12:25:19.634Z,47.32
2018-07-14T12:30:28.626Z,46.43
2018-07-14T12:35:32.156Z,48.54
2018-07-14T12:40:36.430Z,47.24
2018-07-14T12:45:39.945Z,46.78
2018-07-14T12:50:43.549Z,48.35
2018-07-14T12:55:47.252Z,48.44
2018-07-14T13:00:50.942Z,48.21
2018-07-14T13:05:54.749Z,49.37
2018-07-14T13:10:58.290Z,46.99
2018-07-14T13:16:01.829Z,48.56
2018-07-14T13:21:05.320Z,49.07
2018-07-14T13:26:09.766Z,48.80
2018-07-14T13:31:13.299Z,47.75
2018-07-14T13:36:16.900Z,48.84
2018-07-14T13:41:20.392Z,46.92
2018-07-14T13:46:24.389Z,47.22
2018-07-14T13:51:27.912Z,45.00
2018-07-14T13:56:31.487Z,45.85
2018-07-14T14:01:35.021Z,47.38
2018-07-14T14:06:40.272Z,46.40
2018-07-14T14:11:43.855Z,46.03
2018-07-14T14:16:47.428Z,44.58
2018-07-14T14:21:51.822Z,45.71
2018-07-14T14:26:55.437Z,43.17
2018-07-14T14:31:59.288Z,45.86
2018-07-14T14:37:03.616Z,43.73
2018-07-14T14:42:07.445Z,43.37
2018-07-14T14:47:10.998Z,43.83
2018-07-14T14:52:14.593Z,45.01
2018-07-14T14:57:18.198Z,44.71
2018-07-14T15:02:21.750Z,43.09
2018-07-14T15:07:25.415Z,42.85
2018-07-14T15:12:30.720Z,43.15
2018-07-14T15:17:34.933Z,41.27
2018-07-14T15:22:38.544Z,40.60
2018-07-14T15:27:42.122Z,40.88
2018-07-14T15:32:46.295Z,39.84
2018-07-14T15:37:50.312Z,40.76
2018-07-14T15:42:53.766Z,40.26
2018-07-14T15:47:57.343Z,41.58
2018-07-14T15:53:00.877Z,41.41
2018-07-14T15:58:04.575Z,42.58
2018-07-14T16:03:08.736Z,42.89
2018-07-14T16:08:12.667Z,42.92
2018-07-14T16:13:16.205Z,42.71
2018-07-14T16:18:20.709Z,41.69
2018-07-14T16:23:24.213Z,41.92
2018-07-14T16:28:27.826Z,43.33
2018-07-14T16:33:31.377Z,42.96
2018-07-14T16:38:35.159Z,43.57
2018-07-14T16:43:38.882Z,43.04
2018-07-14T16:48:43.178Z,40.74
2018-07-14T16:53:47.481Z,35.74
2018-07-14T16:58:51.097Z,35.02
2018-07-14T17:03:54.719Z,37.60
2018-07-14T17:08:59.460Z,38.21
2018-07-14T17:14:03.260Z,37.18
2018-07-14T17:19:07.144Z,39.41
2018-07-14T17:24:11.093Z,38.21
2018-07-14T17:29:14.927Z,40.86
2018-07-14T17:34:18.472Z,41.65
2018-07-14T17:39:22.057Z,41.22
2018-07-14T17:44:25.541Z,41.17
2018-07-14T17:49:30.634Z,41.13
2018-07-14T17:54:34.892Z,42.66
2018-07-14T17:59:39.214Z,44.43
2018-07-14T18:04:43.013Z,43.78
2018-07-14T18:09:46.525Z,44.62
2018-07-14T18:14:50.038Z,45.82
2018-07-14T18:19:53.825Z,44.52
2018-07-14T18:24:57.313Z,44.44
2018-07-14T18:30:01.049Z,45.99
2018-07-14T18:35:04.685Z,46.67
2018-07-14T18:40:08.331Z,48.14
2018-07-14T18:45:11.877Z,48.10
2018-07-14T18:50:15.565Z,49.51
2018-07-14T18:55:19.052Z,47.90
2018-07-14T19:00:27.906Z,48.56
2018-07-14T19:05:31.498Z,48.71
2018-07-14T19:10:35.071Z,49.29
2018-07-14T19:15:38.527Z,50.41
2018-07-14T19:20:42.192Z,51.12
2018-07-14T19:25:46.502Z,51.23
2018-07-14T19:30:50.255Z,50.96
2018-07-14T19:35:53.875Z,52.17
2018-07-14T19:40:57.702Z,52.59
2018-07-14T19:46:01.543Z,53.57
2018-07-14T19:51:05.190Z,53.00
2018-07-14T19:56:08.866Z,54.25
2018-07-14T20:01:12.412Z,55.81
2018-07-14T20:06:15.876Z,55.60
2018-07-14T20:11:19.455Z,55.54
2018-07-14T20:16:24.522Z,57.08
2018-07-14T20:21:29.827Z,57.32
2018-07-14T20:26:34.085Z,57.83
2018-07-14T20:31:37.787Z,59.01
2018-07-14T20:36:41.357Z,58.94
2018-07-14T20:41:45.198Z,59.80
2018-07-14T20:46:48.873Z,59.87
2018-07-14T20:51:52.845Z,60.73
2018-07-14T20:56:56.366Z,60.31
2018-07-14T21:02:00.114Z,59.97
2018-07-14T21:07:03.707Z,60.97
2018-07-14T21:12:08.456Z,61.32
2018-07-14T21:17:12.109Z,62.41
2018-07-14T21:22:15.634Z,61.96
2018-07-14T21:27:19.279Z,62.07
2018-07-14T21:32:22.828Z,61.51
2018-07-14T21:37:26.548Z,61.65
2018-07-14T21:42:30.091Z,61.57
2018-07-14T21:47:33.726Z,62.54
2018-07-14T21:52:37.313Z,63.62
2018-07-14T21:57:40.860Z,63.36
2018-07-14T22:02:45.904Z,63.69
2018-07-14T22:07:49.383Z,63.86
2018-07-14T22:12:53.417Z,64.78
2018-07-14T22:17:56.914Z,64.87
2018-07-14T22:23:00.469Z,65.63
2018-07-14T22:28:04.023Z,65.76
2018-07-14T22:33:08.116Z,66.41
2018-07-14T22:38:11.612Z,67.69
2018-07-14T22:43:15.275Z,67.83
2018-07-14T22:48:19.352Z,67.98
2018-07-14T22:53:23.170Z,68.22
2018-07-14T22:58:27.432Z,68.72
2018-07-14T23:03:31.129Z,69.12
2018-07-14T23:08:35.223Z,70.76
2018-07-14T23:13:39.956Z,70.34
2018-07-14T23:18:43.471Z,69.98
2018-07-14T23:23:47.038Z,70.64
2018-07-14T23:28:50.736Z,70.96
2018-07-14T23:33:54.249Z,71.66
2018-07-14T23:38:58.560Z,71.47
2018-07-14T23:44:02.095Z,71.62
2018-07-14T23:49:07.008Z,71.81
2018-07-14T23:54:10.531Z,72.91
2018-07-14T23:59:14.514Z,73.24
